sensor_id;sensor_type;location;lat;lon;timestamp;P1;durP1;ratioP1;P2;durP2;ratioP2
59052;SDS011;44843;44.728;10.396;2022-12-04T00:01:46;17.92;;;11.93;;
59052;SDS011;44843;44.728;10.396;2022-12-04T00:04:11;15.07;;;11.27;;
59052;SDS011;44843;44.728;10.396;2022-12-04T00:06:37;15.77;;;11.23;;
59052;SDS011;44843;44.728;10.396;2022-12-04T00:09:02;15.70;;;10.98;;
59052;SDS011;44843;44.728;10.396;2022-12-04T00:11:29;17.38;;;12.50;;
59052;SDS011;44843;44.728;10.396;2022-12-04T00:13:56;15.75;;;11.07;;
59052;SDS011;44843;44.728;10.396;2022-12-04T00:16:23;17.00;;;11.40;;
59052;SDS011;44843;44.728;10.396;2022-12-04T00:18:50;15.07;;;10.70;;
59052;SDS011;44843;44.728;10.396;2022-12-04T00:21:16;15.38;;;10.80;;
59052;SDS011;44843;44.728;10.396;2022-12-04T00:23:43;13.15;;;9.52;;
59052;SDS011;44843;44.728;10.396;2022-12-04T00:26:20;13.80;;;9.60;;
59052;SDS011;44843;44.728;10.396;2022-12-04T00:28:48;11.50;;;8.70;;
59052;SDS011;44843;44.728;10.396;2022-12-04T00:31:15;11.75;;;8.77;;
59052;SDS011;44843;44.728;10.396;2022-12-04T00:33:43;13.52;;;9.00;;
59052;SDS011;44843;44.728;10.396;2022-12-04T00:36:11;9.13;;;7.13;;
59052;SDS011;44843;44.728;10.396;2022-12-04T00:38:38;10.32;;;7.95;;
59052;SDS011;44843;44.728;10.396;2022-12-04T00:41:04;9.38;;;7.55;;
59052;SDS011;44843;44.728;10.396;2022-12-04T00:43:32;12.73;;;7.87;;
59052;SDS011;44843;44.728;10.396;2022-12-04T00:45:58;9.18;;;6.93;;
59052;SDS011;44843;44.728;10.396;2022-12-04T00:48:23;8.00;;;6.70;;
59052;SDS011;44843;44.728;10.396;2022-12-04T00:50:49;7.95;;;6.40;;
59052;SDS011;44843;44.728;10.396;2022-12-04T00:53:15;8.05;;;6.20;;
59052;SDS011;44843;44.728;10.396;2022-12-04T00:55:41;8.95;;;6.45;;
59052;SDS011;44843;44.728;10.396;2022-12-04T00:58:07;6.93;;;6.22;;
59052;SDS011;44843;44.728;10.396;2022-12-04T01:00:33;6.75;;;5.47;;
59052;SDS011;44843;44.728;10.396;2022-12-04T01:03:03;6.53;;;5.68;;
59052;SDS011;44843;44.728;10.396;2022-12-04T01:05:31;8.13;;;5.63;;
59052;SDS011;44843;44.728;10.396;2022-12-04T01:07:56;5.72;;;5.22;;
59052;SDS011;44843;44.728;10.396;2022-12-04T01:10:22;6.15;;;5.22;;
59052;SDS011;44843;44.728;10.396;2022-12-04T01:12:48;7.10;;;5.25;;
59052;SDS011;44843;44.728;10.396;2022-12-04T01:15:14;6.32;;;5.30;;
59052;SDS011;44843;44.728;10.396;2022-12-04T01:17:40;6.45;;;5.45;;
59052;SDS011;44843;44.728;10.396;2022-12-04T01:20:06;6.07;;;5.47;;
59052;SDS011;44843;44.728;10.396;2022-12-04T01:22:32;5.65;;;4.88;;
59052;SDS011;44843;44.728;10.396;2022-12-04T01:24:57;7.53;;;5.53;;
59052;SDS011;44843;44.728;10.396;2022-12-04T01:27:22;5.38;;;4.88;;
59052;SDS011;44843;44.728;10.396;2022-12-04T01:29:48;6.80;;;5.53;;
59052;SDS011;44843;44.728;10.396;2022-12-04T01:32:14;5.15;;;4.65;;
59052;SDS011;44843;44.728;10.396;2022-12-04T01:34:39;5.50;;;5.10;;
59052;SDS011;44843;44.728;10.396;2022-12-04T01:37:05;6.43;;;5.32;;
59052;SDS011;44843;44.728;10.396;2022-12-04T01:39:30;4.95;;;4.40;;
59052;SDS011;44843;44.728;10.396;2022-12-04T01:41:55;5.45;;;4.95;;
59052;SDS011;44843;44.728;10.396;2022-12-04T01:44:22;5.07;;;4.57;;
59052;SDS011;44843;44.728;10.396;2022-12-04T01:46:50;5.87;;;5.30;;
59052;SDS011;44843;44.728;10.396;2022-12-04T01:49:18;5.20;;;4.70;;
59052;SDS011;44843;44.728;10.396;2022-12-04T01:52:13;5.30;;;4.53;;
59052;SDS011;44843;44.728;10.396;2022-12-04T01:54:43;5.93;;;5.37;;
59052;SDS011;44843;44.728;10.396;2022-12-04T01:57:14;4.97;;;4.50;;
59052;SDS011;44843;44.728;10.396;2022-12-04T01:59:42;4.72;;;4.30;;
59052;SDS011;44843;44.728;10.396;2022-12-04T02:02:13;5.28;;;4.78;;
59052;SDS011;44843;44.728;10.396;2022-12-04T02:04:41;5.95;;;5.00;;
59052;SDS011;44843;44.728;10.396;2022-12-04T02:07:08;4.70;;;4.25;;
59052;SDS011;44843;44.728;10.396;2022-12-04T02:09:34;5.80;;;4.75;;
59052;SDS011;44843;44.728;10.396;2022-12-04T02:14:58;4.68;;;4.28;;
59052;SDS011;44843;44.728;10.396;2022-12-04T02:17:27;5.18;;;4.68;;
59052;SDS011;44843;44.728;10.396;2022-12-04T02:25:47;4.60;;;4.10;;
59052;SDS011;44843;44.728;10.396;2022-12-04T02:31:33;3.60;;;3.30;;
59052;SDS011;44843;44.728;10.396;2022-12-04T02:34:06;3.83;;;3.53;;
59052;SDS011;44843;44.728;10.396;2022-12-04T02:36:42;4.20;;;3.70;;
59052;SDS011;44843;44.728;10.396;2022-12-04T02:39:20;3.90;;;3.60;;
59052;SDS011;44843;44.728;10.396;2022-12-04T02:44:21;3.45;;;3.15;;
59052;SDS011;44843;44.728;10.396;2022-12-04T02:46:55;3.88;;;3.08;;
59052;SDS011;44843;44.728;10.396;2022-12-04T02:49:26;3.63;;;3.27;;
59052;SDS011;44843;44.728;10.396;2022-12-04T02:51:57;4.40;;;3.20;;
59052;SDS011;44843;44.728;10.396;2022-12-04T02:54:28;3.53;;;3.22;;
59052;SDS011;44843;44.728;10.396;2022-12-04T02:56:58;4.15;;;3.50;;
59052;SDS011;44843;44.728;10.396;2022-12-04T02:59:35;3.55;;;3.00;;
59052;SDS011;44843;44.728;10.396;2022-12-04T03:02:08;3.97;;;3.58;;
59052;SDS011;44843;44.728;10.396;2022-12-04T03:04:37;5.93;;;3.93;;
59052;SDS011;44843;44.728;10.396;2022-12-04T03:07:14;3.58;;;3.28;;
59052;SDS011;44843;44.728;10.396;2022-12-04T03:09:45;3.92;;;3.60;;
59052;SDS011;44843;44.728;10.396;2022-12-04T03:12:18;3.65;;;3.35;;
59052;SDS011;44843;44.728;10.396;2022-12-04T03:14:54;4.28;;;3.88;;
59052;SDS011;44843;44.728;10.396;2022-12-04T03:17:26;3.78;;;3.40;;
59052;SDS011;44843;44.728;10.396;2022-12-04T03:20:07;4.35;;;3.35;;
59052;SDS011;44843;44.728;10.396;2022-12-04T03:22:35;3.78;;;3.38;;
59052;SDS011;44843;44.728;10.396;2022-12-04T03:25:05;3.50;;;3.20;;
59052;SDS011;44843;44.728;10.396;2022-12-04T03:30:03;3.22;;;2.92;;
59052;SDS011;44843;44.728;10.396;2022-12-04T03:32:38;3.50;;;3.00;;
59052;SDS011;44843;44.728;10.396;2022-12-04T03:35:22;3.55;;;3.15;;
59052;SDS011;44843;44.728;10.396;2022-12-04T03:40:44;3.17;;;2.88;;
59052;SDS011;44843;44.728;10.396;2022-12-04T03:43:28;3.55;;;3.25;;
59052;SDS011;44843;44.728;10.396;2022-12-04T03:48:53;2.70;;;2.50;;
59052;SDS011;44843;44.728;10.396;2022-12-04T03:54:22;2.50;;;2.30;;
59052;SDS011;44843;44.728;10.396;2022-12-04T03:57:12;2.60;;;2.40;;
59052;SDS011;44843;44.728;10.396;2022-12-04T03:59:44;2.60;;;2.40;;
59052;SDS011;44843;44.728;10.396;2022-12-04T04:02:16;2.63;;;2.43;;
59052;SDS011;44843;44.728;10.396;2022-12-04T04:04:47;3.20;;;2.55;;
59052;SDS011;44843;44.728;10.396;2022-12-04T04:07:23;2.40;;;2.20;;
59052;SDS011;44843;44.728;10.396;2022-12-04T04:09:53;2.92;;;2.33;;
59052;SDS011;44843;44.728;10.396;2022-12-04T04:12:26;2.30;;;2.10;;
59052;SDS011;44843;44.728;10.396;2022-12-04T04:15:11;3.20;;;2.25;;
59052;SDS011;44843;44.728;10.396;2022-12-04T04:17:57;2.40;;;2.20;;
59052;SDS011;44843;44.728;10.396;2022-12-04T04:20:46;2.60;;;2.40;;
59052;SDS011;44843;44.728;10.396;2022-12-04T04:23:35;2.60;;;2.33;;
59052;SDS011;44843;44.728;10.396;2022-12-04T04:26:23;2.28;;;2.08;;
59052;SDS011;44843;44.728;10.396;2022-12-04T04:28:52;2.67;;;2.45;;
59052;SDS011;44843;44.728;10.396;2022-12-04T04:31:25;3.10;;;2.45;;
59052;SDS011;44843;44.728;10.396;2022-12-04T04:33:58;4.13;;;2.55;;
59052;SDS011;44843;44.728;10.396;2022-12-04T04:39:19;2.53;;;2.33;;
59052;SDS011;44843;44.728;10.396;2022-12-04T04:47:40;2.25;;;2.05;;
59052;SDS011;44843;44.728;10.396;2022-12-04T04:50:14;2.50;;;2.30;;
59052;SDS011;44843;44.728;10.396;2022-12-04T04:52:44;2.50;;;2.30;;
59052;SDS011;44843;44.728;10.396;2022-12-04T04:55:12;2.63;;;2.10;;
59052;SDS011;44843;44.728;10.396;2022-12-04T04:57:39;1.98;;;1.85;;
59052;SDS011;44843;44.728;10.396;2022-12-04T05:00:10;2.90;;;2.28;;
59052;SDS011;44843;44.728;10.396;2022-12-04T05:02:38;2.65;;;2.10;;
59052;SDS011;44843;44.728;10.396;2022-12-04T05:05:04;2.33;;;1.98;;
59052;SDS011;44843;44.728;10.396;2022-12-04T05:07:29;2.33;;;1.83;;
59052;SDS011;44843;44.728;10.396;2022-12-04T05:09:55;2.55;;;1.63;;
59052;SDS011;44843;44.728;10.396;2022-12-04T05:12:20;1.52;;;1.42;;
59052;SDS011;44843;44.728;10.396;2022-12-04T05:14:46;2.45;;;1.80;;
59052;SDS011;44843;44.728;10.396;2022-12-04T05:17:12;1.98;;;1.33;;
59052;SDS011;44843;44.728;10.396;2022-12-04T05:19:38;1.35;;;1.25;;
59052;SDS011;44843;44.728;10.396;2022-12-04T05:22:19;1.20;;;1.10;;
59052;SDS011;44843;44.728;10.396;2022-12-04T05:24:46;1.05;;;1.00;;
59052;SDS011;44843;44.728;10.396;2022-12-04T05:29:39;2.05;;;1.30;;
59052;SDS011;44843;44.728;10.396;2022-12-04T05:32:05;1.20;;;1.10;;
59052;SDS011;44843;44.728;10.396;2022-12-04T05:34:30;1.20;;;1.10;;
59052;SDS011;44843;44.728;10.396;2022-12-04T05:36:56;1.17;;;1.02;;
59052;SDS011;44843;44.728;10.396;2022-12-04T05:39:21;1.30;;;1.20;;
59052;SDS011;44843;44.728;10.396;2022-12-04T05:41:47;1.10;;;1.05;;
59052;SDS011;44843;44.728;10.396;2022-12-04T05:44:12;1.40;;;1.30;;
59052;SDS011;44843;44.728;10.396;2022-12-04T05:46:37;1.40;;;1.00;;
59052;SDS011;44843;44.728;10.396;2022-12-04T05:49:03;1.40;;;1.30;;
59052;SDS011;44843;44.728;10.396;2022-12-04T05:51:28;1.88;;;1.70;;
59052;SDS011;44843;44.728;10.396;2022-12-04T05:53:54;1.40;;;1.30;;
59052;SDS011;44843;44.728;10.396;2022-12-04T05:56:19;2.20;;;1.10;;
59052;SDS011;44843;44.728;10.396;2022-12-04T05:58:45;1.10;;;1.00;;
59052;SDS011;44843;44.728;10.396;2022-12-04T06:01:17;3.35;;;1.30;;
59052;SDS011;44843;44.728;10.396;2022-12-04T06:03:44;1.77;;;1.40;;
59052;SDS011;44843;44.728;10.396;2022-12-04T06:06:14;1.65;;;1.55;;
59052;SDS011;44843;44.728;10.396;2022-12-04T06:08:44;1.45;;;1.35;;
59052;SDS011;44843;44.728;10.396;2022-12-04T06:11:11;1.42;;;1.30;;
59052;SDS011;44843;44.728;10.396;2022-12-04T06:13:38;1.88;;;1.20;;
59052;SDS011;44843;44.728;10.396;2022-12-04T06:16:04;1.48;;;1.20;;
59052;SDS011;44843;44.728;10.396;2022-12-04T06:18:30;1.20;;;1.10;;
59052;SDS011;44843;44.728;10.396;2022-12-04T06:20:58;1.27;;;1.15;;
59052;SDS011;44843;44.728;10.396;2022-12-04T06:23:24;1.30;;;1.20;;
59052;SDS011;44843;44.728;10.396;2022-12-04T06:25:49;1.40;;;1.30;;
59052;SDS011;44843;44.728;10.396;2022-12-04T06:28:14;1.25;;;1.15;;
59052;SDS011;44843;44.728;10.396;2022-12-04T06:30:40;1.77;;;1.33;;
59052;SDS011;44843;44.728;10.396;2022-12-04T06:33:05;1.38;;;1.23;;
59052;SDS011;44843;44.728;10.396;2022-12-04T06:35:30;2.15;;;1.40;;
59052;SDS011;44843;44.728;10.396;2022-12-04T06:37:56;1.02;;;1.02;;
59052;SDS011;44843;44.728;10.396;2022-12-04T06:40:21;1.30;;;1.20;;
59052;SDS011;44843;44.728;10.396;2022-12-04T06:42:47;1.85;;;1.30;;
59052;SDS011;44843;44.728;10.396;2022-12-04T06:45:12;1.42;;;1.33;;
59052;SDS011;44843;44.728;10.396;2022-12-04T06:47:37;1.40;;;1.30;;
59052;SDS011;44843;44.728;10.396;2022-12-04T06:50:03;1.42;;;1.33;;
59052;SDS011;44843;44.728;10.396;2022-12-04T06:52:31;1.10;;;1.10;;
59052;SDS011;44843;44.728;10.396;2022-12-04T06:54:57;1.40;;;1.30;;
59052;SDS011;44843;44.728;10.396;2022-12-04T06:57:23;1.23;;;1.15;;
59052;SDS011;44843;44.728;10.396;2022-12-04T06:59:48;1.30;;;1.15;;
59052;SDS011;44843;44.728;10.396;2022-12-04T07:02:13;1.00;;;1.00;;
59052;SDS011;44843;44.728;10.396;2022-12-04T07:04:39;1.00;;;1.00;;
59052;SDS011;44843;44.728;10.396;2022-12-04T07:07:06;1.38;;;1.27;;
59052;SDS011;44843;44.728;10.396;2022-12-04T07:09:33;1.95;;;1.35;;
59052;SDS011;44843;44.728;10.396;2022-12-04T07:11:59;1.40;;;1.30;;
59052;SDS011;44843;44.728;10.396;2022-12-04T07:14:25;1.42;;;1.30;;
59052;SDS011;44843;44.728;10.396;2022-12-04T07:16:50;1.50;;;1.40;;
59052;SDS011;44843;44.728;10.396;2022-12-04T07:19:15;1.20;;;1.10;;
59052;SDS011;44843;44.728;10.396;2022-12-04T07:21:41;1.27;;;1.17;;
59052;SDS011;44843;44.728;10.396;2022-12-04T07:24:07;1.30;;;1.20;;
59052;SDS011;44843;44.728;10.396;2022-12-04T07:26:39;1.42;;;1.33;;
59052;SDS011;44843;44.728;10.396;2022-12-04T07:29:04;1.30;;;1.20;;
59052;SDS011;44843;44.728;10.396;2022-12-04T07:31:29;1.45;;;1.35;;
59052;SDS011;44843;44.728;10.396;2022-12-04T07:33:55;1.20;;;1.10;;
59052;SDS011;44843;44.728;10.396;2022-12-04T07:36:22;2.13;;;1.40;;
59052;SDS011;44843;44.728;10.396;2022-12-04T07:38:48;1.20;;;1.10;;
59052;SDS011;44843;44.728;10.396;2022-12-04T07:41:14;1.33;;;1.23;;
59052;SDS011;44843;44.728;10.396;2022-12-04T07:43:40;1.55;;;1.20;;
59052;SDS011;44843;44.728;10.396;2022-12-04T07:46:10;1.35;;;1.25;;
59052;SDS011;44843;44.728;10.396;2022-12-04T07:48:37;1.52;;;1.15;;
59052;SDS011;44843;44.728;10.396;2022-12-04T07:51:07;2.13;;;1.92;;
59052;SDS011;44843;44.728;10.396;2022-12-04T07:53:34;1.60;;;1.45;;
59052;SDS011;44843;44.728;10.396;2022-12-04T07:56:01;1.63;;;1.30;;
59052;SDS011;44843;44.728;10.396;2022-12-04T07:58:28;1.38;;;1.27;;
59052;SDS011;44843;44.728;10.396;2022-12-04T08:00:53;1.40;;;1.30;;
59052;SDS011;44843;44.728;10.396;2022-12-04T08:03:18;2.40;;;1.95;;
59052;SDS011;44843;44.728;10.396;2022-12-04T08:05:44;1.30;;;1.20;;
59052;SDS011;44843;44.728;10.396;2022-12-04T08:08:09;1.92;;;1.38;;
59052;SDS011;44843;44.728;10.396;2022-12-04T08:10:35;1.98;;;1.45;;
59052;SDS011;44843;44.728;10.396;2022-12-04T08:13:03;1.42;;;1.30;;
59052;SDS011;44843;44.728;10.396;2022-12-04T08:15:29;1.25;;;1.15;;
59052;SDS011;44843;44.728;10.396;2022-12-04T08:17:54;1.30;;;1.20;;
59052;SDS011;44843;44.728;10.396;2022-12-04T08:20:19;1.58;;;1.33;;
59052;SDS011;44843;44.728;10.396;2022-12-04T08:22:45;1.35;;;1.10;;
59052;SDS011;44843;44.728;10.396;2022-12-04T08:25:12;1.17;;;0.93;;
59052;SDS011;44843;44.728;10.396;2022-12-04T08:27:37;1.20;;;1.10;;
59052;SDS011;44843;44.728;10.396;2022-12-04T08:30:02;2.90;;;1.42;;
59052;SDS011;44843;44.728;10.396;2022-12-04T08:32:28;1.92;;;1.27;;
59052;SDS011;44843;44.728;10.396;2022-12-04T08:34:53;1.73;;;1.58;;
59052;SDS011;44843;44.728;10.396;2022-12-04T08:37:19;1.92;;;1.30;;
59052;SDS011;44843;44.728;10.396;2022-12-04T08:39:44;1.42;;;1.33;;
59052;SDS011;44843;44.728;10.396;2022-12-04T08:42:10;2.42;;;1.85;;
59052;SDS011;44843;44.728;10.396;2022-12-04T08:44:35;2.17;;;1.77;;
59052;SDS011;44843;44.728;10.396;2022-12-04T08:47:01;7.20;;;4.80;;
59052;SDS011;44843;44.728;10.396;2022-12-04T08:49:26;7.55;;;5.43;;
59052;SDS011;44843;44.728;10.396;2022-12-04T08:51:51;3.78;;;3.45;;
59052;SDS011;44843;44.728;10.396;2022-12-04T08:54:17;4.65;;;3.92;;
59052;SDS011;44843;44.728;10.396;2022-12-04T08:56:42;3.28;;;3.00;;
59052;SDS011;44843;44.728;10.396;2022-12-04T08:59:08;2.65;;;2.45;;
59052;SDS011;44843;44.728;10.396;2022-12-04T09:01:36;3.00;;;2.78;;
59052;SDS011;44843;44.728;10.396;2022-12-04T09:04:01;4.07;;;3.67;;
59052;SDS011;44843;44.728;10.396;2022-12-04T09:06:27;4.97;;;3.88;;
59052;SDS011;44843;44.728;10.396;2022-12-04T09:08:53;2.38;;;2.17;;
59052;SDS011;44843;44.728;10.396;2022-12-04T09:11:39;4.00;;;3.70;;
59052;SDS011;44843;44.728;10.396;2022-12-04T09:14:04;2.25;;;2.13;;
59052;SDS011;44843;44.728;10.396;2022-12-04T09:16:30;1.95;;;1.42;;
59052;SDS011;44843;44.728;10.396;2022-12-04T09:18:55;1.55;;;1.45;;
59052;SDS011;44843;44.728;10.396;2022-12-04T09:21:21;1.88;;;1.33;;
59052;SDS011;44843;44.728;10.396;2022-12-04T09:23:48;1.65;;;1.55;;
59052;SDS011;44843;44.728;10.396;2022-12-04T09:26:21;1.33;;;1.23;;
59052;SDS011;44843;44.728;10.396;2022-12-04T09:28:49;1.35;;;1.25;;
59052;SDS011;44843;44.728;10.396;2022-12-04T09:31:16;1.40;;;1.30;;
59052;SDS011;44843;44.728;10.396;2022-12-04T09:33:43;1.50;;;1.40;;
59052;SDS011;44843;44.728;10.396;2022-12-04T09:36:08;1.75;;;1.58;;
59052;SDS011;44843;44.728;10.396;2022-12-04T09:38:40;1.23;;;1.10;;
59052;SDS011;44843;44.728;10.396;2022-12-04T09:41:14;2.33;;;1.40;;
59052;SDS011;44843;44.728;10.396;2022-12-04T09:43:48;2.58;;;1.80;;
59052;SDS011;44843;44.728;10.396;2022-12-04T09:46:34;2.33;;;1.67;;
59052;SDS011;44843;44.728;10.396;2022-12-04T09:49:10;2.03;;;1.80;;
59052;SDS011;44843;44.728;10.396;2022-12-04T09:51:39;2.85;;;1.85;;
59052;SDS011;44843;44.728;10.396;2022-12-04T09:54:11;4.45;;;2.70;;
59052;SDS011;44843;44.728;10.396;2022-12-04T09:56:41;2.08;;;1.80;;
59052;SDS011;44843;44.728;10.396;2022-12-04T09:59:16;2.35;;;1.95;;
59052;SDS011;44843;44.728;10.396;2022-12-04T10:01:47;5.10;;;1.80;;
59052;SDS011;44843;44.728;10.396;2022-12-04T10:04:15;1.95;;;1.70;;
59052;SDS011;44843;44.728;10.396;2022-12-04T10:09:38;1.55;;;1.45;;
59052;SDS011;44843;44.728;10.396;2022-12-04T10:12:33;1.20;;;1.10;;
59052;SDS011;44843;44.728;10.396;2022-12-04T10:20:33;1.70;;;1.27;;
59052;SDS011;44843;44.728;10.396;2022-12-04T10:23:17;1.13;;;1.00;;
59052;SDS011;44843;44.728;10.396;2022-12-04T10:31:01;1.23;;;1.02;;
59052;SDS011;44843;44.728;10.396;2022-12-04T10:33:44;1.35;;;1.05;;
59052;SDS011;44843;44.728;10.396;2022-12-04T10:36:16;1.20;;;1.10;;
59052;SDS011;44843;44.728;10.396;2022-12-04T10:38:48;1.30;;;1.02;;
59052;SDS011;44843;44.728;10.396;2022-12-04T10:44:18;1.30;;;1.20;;
59052;SDS011;44843;44.728;10.396;2022-12-04T10:46:44;2.03;;;1.38;;
59052;SDS011;44843;44.728;10.396;2022-12-04T10:51:39;1.83;;;1.50;;
59052;SDS011;44843;44.728;10.396;2022-12-04T10:54:20;1.67;;;1.52;;
59052;SDS011;44843;44.728;10.396;2022-12-04T10:56:50;1.50;;;1.40;;
59052;SDS011;44843;44.728;10.396;2022-12-04T10:59:16;2.03;;;1.40;;
59052;SDS011;44843;44.728;10.396;2022-12-04T11:01:42;1.60;;;1.50;;
59052;SDS011;44843;44.728;10.396;2022-12-04T11:04:17;1.83;;;1.52;;
59052;SDS011;44843;44.728;10.396;2022-12-04T11:06:46;2.25;;;1.48;;
59052;SDS011;44843;44.728;10.396;2022-12-04T11:09:20;1.40;;;1.27;;
59052;SDS011;44843;44.728;10.396;2022-12-04T11:11:48;1.52;;;1.42;;
59052;SDS011;44843;44.728;10.396;2022-12-04T11:14:18;7.32;;;3.40;;
59052;SDS011;44843;44.728;10.396;2022-12-04T11:16:47;5.65;;;3.08;;
59052;SDS011;44843;44.728;10.396;2022-12-04T11:19:18;1.65;;;1.55;;
59052;SDS011;44843;44.728;10.396;2022-12-04T11:21:51;1.67;;;1.40;;
59052;SDS011;44843;44.728;10.396;2022-12-04T11:24:31;1.65;;;1.42;;
59052;SDS011;44843;44.728;10.396;2022-12-04T11:26:58;1.38;;;1.23;;
59052;SDS011;44843;44.728;10.396;2022-12-04T11:29:28;1.30;;;1.20;;
59052;SDS011;44843;44.728;10.396;2022-12-04T11:31:57;1.55;;;1.45;;
59052;SDS011;44843;44.728;10.396;2022-12-04T11:34:25;1.98;;;1.55;;
59052;SDS011;44843;44.728;10.396;2022-12-04T11:36:58;2.38;;;1.50;;
59052;SDS011;44843;44.728;10.396;2022-12-04T11:39:27;1.85;;;1.30;;
59052;SDS011;44843;44.728;10.396;2022-12-04T11:42:04;2.75;;;1.27;;
59052;SDS011;44843;44.728;10.396;2022-12-04T11:44:47;1.90;;;1.80;;
59052;SDS011;44843;44.728;10.396;2022-12-04T11:47:18;1.40;;;1.30;;
59052;SDS011;44843;44.728;10.396;2022-12-04T11:49:55;1.42;;;1.33;;
59052;SDS011;44843;44.728;10.396;2022-12-04T11:52:49;1.55;;;1.30;;
59052;SDS011;44843;44.728;10.396;2022-12-04T11:58:06;1.63;;;1.05;;
59052;SDS011;44843;44.728;10.396;2022-12-04T12:00:37;1.33;;;1.23;;
59052;SDS011;44843;44.728;10.396;2022-12-04T12:03:14;1.30;;;1.20;;
59052;SDS011;44843;44.728;10.396;2022-12-04T12:33:30;1.30;;;1.20;;
59052;SDS011;44843;44.728;10.396;2022-12-04T12:36:10;2.83;;;1.60;;
59052;SDS011;44843;44.728;10.396;2022-12-04T12:41:13;1.20;;;1.10;;
59052;SDS011;44843;44.728;10.396;2022-12-04T12:43:42;1.70;;;1.38;;
59052;SDS011;44843;44.728;10.396;2022-12-04T12:46:17;1.58;;;1.42;;
59052;SDS011;44843;44.728;10.396;2022-12-04T12:48:52;1.63;;;1.30;;
59052;SDS011;44843;44.728;10.396;2022-12-04T12:51:32;1.73;;;1.25;;
59052;SDS011;44843;44.728;10.396;2022-12-04T12:57:03;1.63;;;1.33;;
59052;SDS011;44843;44.728;10.396;2022-12-04T12:59:34;1.35;;;1.25;;
59052;SDS011;44843;44.728;10.396;2022-12-04T13:05:24;1.40;;;1.30;;
59052;SDS011;44843;44.728;10.396;2022-12-04T13:10:45;4.05;;;1.50;;
59052;SDS011;44843;44.728;10.396;2022-12-04T13:13:24;1.67;;;1.58;;
59052;SDS011;44843;44.728;10.396;2022-12-04T13:15:54;1.40;;;1.30;;
59052;SDS011;44843;44.728;10.396;2022-12-04T13:20:53;3.75;;;1.40;;
59052;SDS011;44843;44.728;10.396;2022-12-04T13:31:08;1.67;;;1.45;;
59052;SDS011;44843;44.728;10.396;2022-12-04T13:42:15;1.50;;;1.38;;
59052;SDS011;44843;44.728;10.396;2022-12-04T13:44:51;2.50;;;1.50;;
59052;SDS011;44843;44.728;10.396;2022-12-04T13:47:25;2.03;;;1.83;;
59052;SDS011;44843;44.728;10.396;2022-12-04T13:52:44;2.15;;;1.58;;
59052;SDS011;44843;44.728;10.396;2022-12-04T13:55:28;1.77;;;1.67;;
59052;SDS011;44843;44.728;10.396;2022-12-04T13:57:57;1.80;;;1.60;;
59052;SDS011;44843;44.728;10.396;2022-12-04T14:00:26;1.70;;;1.60;;
59052;SDS011;44843;44.728;10.396;2022-12-04T14:02:53;2.08;;;1.58;;
59052;SDS011;44843;44.728;10.396;2022-12-04T14:05:26;2.55;;;1.77;;
59052;SDS011;44843;44.728;10.396;2022-12-04T14:08:39;2.28;;;2.08;;
59052;SDS011;44843;44.728;10.396;2022-12-04T14:10:42;3.55;;;2.45;;
59052;SDS011;44843;44.728;10.396;2022-12-04T14:13:17;2.30;;;2.10;;
59052;SDS011;44843;44.728;10.396;2022-12-04T14:15:45;2.10;;;1.88;;
59052;SDS011;44843;44.728;10.396;2022-12-04T14:20:37;3.42;;;1.85;;
59052;SDS011;44843;44.728;10.396;2022-12-04T14:25:50;2.63;;;2.42;;
59052;SDS011;44843;44.728;10.396;2022-12-04T14:31:07;1.70;;;1.60;;
59052;SDS011;44843;44.728;10.396;2022-12-04T14:36:44;2.17;;;1.95;;
59052;SDS011;44843;44.728;10.396;2022-12-04T14:42:21;2.00;;;1.80;;
59052;SDS011;44843;44.728;10.396;2022-12-04T14:44:53;2.67;;;2.47;;
59052;SDS011;44843;44.728;10.396;2022-12-04T14:47:32;3.00;;;2.40;;
59052;SDS011;44843;44.728;10.396;2022-12-04T14:53:17;3.28;;;2.20;;
59052;SDS011;44843;44.728;10.396;2022-12-04T14:58:41;6.43;;;4.93;;
59052;SDS011;44843;44.728;10.396;2022-12-04T15:01:23;7.03;;;4.85;;
59052;SDS011;44843;44.728;10.396;2022-12-04T15:03:51;3.45;;;3.08;;
59052;SDS011;44843;44.728;10.396;2022-12-04T15:06:24;14.13;;;6.32;;
59052;SDS011;44843;44.728;10.396;2022-12-04T15:08:51;8.82;;;5.88;;
59052;SDS011;44843;44.728;10.396;2022-12-04T15:14:44;4.15;;;3.50;;
59052;SDS011;44843;44.728;10.396;2022-12-04T15:17:12;2.78;;;2.58;;
59052;SDS011;44843;44.728;10.396;2022-12-04T15:19:39;2.42;;;2.22;;
59052;SDS011;44843;44.728;10.396;2022-12-04T15:22:13;3.65;;;2.65;;
59052;SDS011;44843;44.728;10.396;2022-12-04T15:24:50;15.95;;;8.52;;
59052;SDS011;44843;44.728;10.396;2022-12-04T15:27:18;7.25;;;5.20;;
59052;SDS011;44843;44.728;10.396;2022-12-04T15:29:47;4.82;;;4.07;;
59052;SDS011;44843;44.728;10.396;2022-12-04T15:32:16;6.43;;;4.03;;
59052;SDS011;44843;44.728;10.396;2022-12-04T15:34:49;4.13;;;3.72;;
59052;SDS011;44843;44.728;10.396;2022-12-04T15:37:30;4.65;;;4.25;;
59052;SDS011;44843;44.728;10.396;2022-12-04T15:39:57;3.92;;;3.53;;
59052;SDS011;44843;44.728;10.396;2022-12-04T15:44:58;3.45;;;3.00;;
59052;SDS011;44843;44.728;10.396;2022-12-04T15:47:30;3.13;;;2.83;;
59052;SDS011;44843;44.728;10.396;2022-12-04T15:50:19;3.58;;;2.95;;
59052;SDS011;44843;44.728;10.396;2022-12-04T15:57:59;4.90;;;3.45;;
59052;SDS011;44843;44.728;10.396;2022-12-04T16:00:28;4.55;;;3.55;;
59052;SDS011;44843;44.728;10.396;2022-12-04T16:03:00;5.67;;;4.37;;
59052;SDS011;44843;44.728;10.396;2022-12-04T16:05:31;5.03;;;4.22;;
59052;SDS011;44843;44.728;10.396;2022-12-04T16:10:55;7.22;;;5.55;;
59052;SDS011;44843;44.728;10.396;2022-12-04T16:13:26;9.02;;;6.18;;
59052;SDS011;44843;44.728;10.396;2022-12-04T16:15:54;15.10;;;8.48;;
59052;SDS011;44843;44.728;10.396;2022-12-04T16:18:23;9.45;;;5.53;;
59052;SDS011;44843;44.728;10.396;2022-12-04T16:20:48;6.03;;;4.72;;
59052;SDS011;44843;44.728;10.396;2022-12-04T16:23:14;8.27;;;5.15;;
59052;SDS011;44843;44.728;10.396;2022-12-04T16:25:40;5.60;;;4.82;;
59052;SDS011;44843;44.728;10.396;2022-12-04T16:28:05;10.73;;;7.07;;
59052;SDS011;44843;44.728;10.396;2022-12-04T16:30:31;11.85;;;7.10;;
59052;SDS011;44843;44.728;10.396;2022-12-04T16:32:58;13.68;;;9.30;;
59052;SDS011;44843;44.728;10.396;2022-12-04T16:35:24;7.45;;;6.22;;
59052;SDS011;44843;44.728;10.396;2022-12-04T16:37:49;6.15;;;5.43;;
59052;SDS011;44843;44.728;10.396;2022-12-04T16:40:15;8.70;;;5.90;;
59052;SDS011;44843;44.728;10.396;2022-12-04T16:42:40;12.57;;;5.90;;
59052;SDS011;44843;44.728;10.396;2022-12-04T16:47:50;8.90;;;5.72;;
59052;SDS011;44843;44.728;10.396;2022-12-04T16:50:16;7.35;;;6.05;;
59052;SDS011;44843;44.728;10.396;2022-12-04T16:52:42;10.63;;;6.80;;
59052;SDS011;44843;44.728;10.396;2022-12-04T16:57:44;8.20;;;6.47;;
59052;SDS011;44843;44.728;10.396;2022-12-04T17:00:11;10.35;;;5.88;;
59052;SDS011;44843;44.728;10.396;2022-12-04T17:02:38;8.35;;;6.63;;
59052;SDS011;44843;44.728;10.396;2022-12-04T17:05:04;8.93;;;6.35;;
59052;SDS011;44843;44.728;10.396;2022-12-04T17:07:30;9.77;;;6.03;;
59052;SDS011;44843;44.728;10.396;2022-12-04T17:09:55;7.20;;;6.05;;
59052;SDS011;44843;44.728;10.396;2022-12-04T17:12:21;5.70;;;5.10;;
59052;SDS011;44843;44.728;10.396;2022-12-04T17:14:46;5.95;;;4.60;;
59052;SDS011;44843;44.728;10.396;2022-12-04T17:17:12;6.88;;;5.97;;
59052;SDS011;44843;44.728;10.396;2022-12-04T17:19:37;12.15;;;7.85;;
59052;SDS011;44843;44.728;10.396;2022-12-04T17:22:02;4.82;;;4.35;;
59052;SDS011;44843;44.728;10.396;2022-12-04T17:24:28;4.68;;;4.20;;
59052;SDS011;44843;44.728;10.396;2022-12-04T17:26:53;72.63;;;28.55;;